createdAt,value
2023-02-19T00:00:07.357Z,8.89
2023-02-19T00:02:36.119Z,8.84
2023-02-19T00:05:06.233Z,8.79
2023-02-19T00:07:33.314Z,8.71
2023-02-19T00:10:00.314Z,8.59
2023-02-19T00:12:28.019Z,8.50
2023-02-19T00:14:56.065Z,8.51
2023-02-19T00:17:23.080Z,8.44
2023-02-19T00:19:50.065Z,8.42
2023-02-19T00:22:16.993Z,8.34
2023-02-19T00:24:43.950Z,8.33
2023-02-19T00:27:11.186Z,8.33
2023-02-19T00:29:38.094Z,8.33
2023-02-19T00:32:05.472Z,8.28
2023-02-19T00:34:32.506Z,8.27
2023-02-19T00:36:59.530Z,8.20
2023-02-19T00:39:26.573Z,8.09
2023-02-19T00:41:53.528Z,8.13
2023-02-19T00:44:23.437Z,8.06
2023-02-19T00:46:50.623Z,8.10
2023-02-19T00:49:26.776Z,8.14
2023-02-19T00:51:54.226Z,8.13
2023-02-19T00:54:24.905Z,8.02
2023-02-19T00:56:52.143Z,8.10
2023-02-19T00:59:19.628Z,8.14
2023-02-19T01:01:50.323Z,8.03
2023-02-19T01:04:17.776Z,8.11
2023-02-19T01:06:45.526Z,8.10
2023-02-19T01:09:12.508Z,8.13
2023-02-19T01:11:39.534Z,8.19
2023-02-19T01:14:06.456Z,8.21
2023-02-19T01:16:33.519Z,8.16
2023-02-19T01:19:00.644Z,8.10
2023-02-19T01:21:30.265Z,8.08
2023-02-19T01:23:59.470Z,8.10
2023-02-19T01:26:29.503Z,8.14
2023-02-19T01:28:57.583Z,8.20
2023-02-19T01:31:25.948Z,8.30
2023-02-19T01:33:55.944Z,8.53
2023-02-19T01:36:25.299Z,8.57
2023-02-19T01:38:53.377Z,8.57
2023-02-19T01:41:23.606Z,8.31
2023-02-19T01:44:17.351Z,8.43
2023-02-19T01:46:48.840Z,8.29
2023-02-19T01:49:19.187Z,8.17
2023-02-19T01:51:50.757Z,7.99
2023-02-19T01:54:21.596Z,7.94
2023-02-19T01:56:52.776Z,8.04
2023-02-19T01:59:19.990Z,8.12
2023-02-19T02:01:46.984Z,8.10
2023-02-19T02:04:15.745Z,7.95
2023-02-19T02:06:52.355Z,7.97
2023-02-19T02:09:38.552Z,8.09
2023-02-19T02:12:05.591Z,8.03
2023-02-19T02:14:38.137Z,8.09
2023-02-19T02:17:23.369Z,7.96
2023-02-19T02:20:14.900Z,7.89
2023-02-19T02:23:22.787Z,7.71
2023-02-19T02:26:25.930Z,7.84
2023-02-19T02:28:58.473Z,7.85
2023-02-19T02:31:39.605Z,7.86
2023-02-19T02:34:21.136Z,7.75
2023-02-19T02:36:54.545Z,7.72
2023-02-19T02:39:25.733Z,7.68
2023-02-19T02:42:16.613Z,7.70
2023-02-19T02:45:04.932Z,7.80
2023-02-19T02:47:44.961Z,7.86
2023-02-19T02:50:18.567Z,7.85
2023-02-19T02:53:07.103Z,7.98
2023-02-19T02:55:38.964Z,7.99
2023-02-19T02:58:07.760Z,8.01
2023-02-19T03:00:55.754Z,8.01
2023-02-19T03:03:26.121Z,8.05
2023-02-19T03:05:57.837Z,8.17
2023-02-19T03:08:31.802Z,8.10
2023-02-19T03:11:24.670Z,7.97
2023-02-19T03:14:28.900Z,7.99
2023-02-19T03:17:21.747Z,7.92
2023-02-19T03:19:52.540Z,7.90
2023-02-19T03:22:25.019Z,7.84
2023-02-19T03:25:47.005Z,7.67
2023-02-19T03:28:17.737Z,7.92
2023-02-19T03:30:52.374Z,8.00
2023-02-19T03:33:24.190Z,7.97
2023-02-19T03:36:00.344Z,7.90
2023-02-19T03:38:37.089Z,7.80
2023-02-19T03:41:25.352Z,8.00
2023-02-19T03:44:17.976Z,8.01
2023-02-19T03:47:12.690Z,7.96
2023-02-19T03:49:57.904Z,7.91
2023-02-19T03:52:42.192Z,8.05
2023-02-19T03:55:24.797Z,8.21
2023-02-19T03:58:03.938Z,8.32
2023-02-19T04:00:52.928Z,8.36
2023-02-19T04:03:37.538Z,8.42
2023-02-19T04:06:17.737Z,8.47
2023-02-19T04:08:49.049Z,8.56
2023-02-19T04:11:19.423Z,8.49
2023-02-19T04:14:01.616Z,8.42
2023-02-19T04:16:30.140Z,8.49
2023-02-19T04:19:06.612Z,8.43
2023-02-19T04:21:35.112Z,8.41
2023-02-19T04:24:07.211Z,8.29
2023-02-19T04:26:35.687Z,8.27
2023-02-19T04:29:02.504Z,8.25
2023-02-19T04:31:35.390Z,8.39
2023-02-19T04:34:04.078Z,8.37
2023-02-19T04:36:33.993Z,8.37
2023-02-19T04:39:00.999Z,8.36
2023-02-19T04:41:28.006Z,8.34
2023-02-19T04:43:54.889Z,8.30
2023-02-19T04:46:21.920Z,8.20
2023-02-19T04:48:48.817Z,8.09
2023-02-19T04:51:15.834Z,8.11
2023-02-19T04:53:43.016Z,8.11
2023-02-19T04:56:12.672Z,8.14
2023-02-19T04:58:39.952Z,8.16
2023-02-19T05:01:07.075Z,8.27
2023-02-19T05:03:39.933Z,8.23
2023-02-19T05:06:09.229Z,8.28
2023-02-19T05:08:36.525Z,8.32
2023-02-19T05:11:06.433Z,8.42
2023-02-19T05:13:33.741Z,8.44
2023-02-19T05:16:14.153Z,8.49
2023-02-19T05:18:41.700Z,8.49
2023-02-19T05:21:09.653Z,8.59
2023-02-19T05:23:37.134Z,8.58
2023-02-19T05:26:08.960Z,8.61
2023-02-19T05:28:35.967Z,8.62
2023-02-19T05:31:09.852Z,8.65
2023-02-19T05:33:38.208Z,8.57
2023-02-19T05:36:10.457Z,8.52
2023-02-19T05:38:38.083Z,8.31
2023-02-19T05:41:10.722Z,8.36
2023-02-19T05:43:39.752Z,8.36
2023-02-19T05:46:07.559Z,8.39
2023-02-19T05:48:34.749Z,8.40
2023-02-19T05:51:06.344Z,8.28
2023-02-19T05:53:33.678Z,8.24
2023-02-19T05:56:00.599Z,8.39
2023-02-19T05:58:28.069Z,8.23
2023-02-19T06:00:55.954Z,8.38
2023-02-19T06:03:23.234Z,8.39
2023-02-19T06:05:50.075Z,8.39
2023-02-19T06:08:17.023Z,8.33
2023-02-19T06:10:43.855Z,8.43
2023-02-19T06:13:10.815Z,8.44
2023-02-19T06:15:38.065Z,8.47
2023-02-19T06:18:05.236Z,8.56
2023-02-19T06:20:33.217Z,8.59
2023-02-19T06:23:00.180Z,8.74
2023-02-19T06:25:26.997Z,8.78
2023-02-19T06:27:53.784Z,8.93
2023-02-19T06:30:20.872Z,9.10
2023-02-19T06:32:47.745Z,9.34
2023-02-19T06:35:14.598Z,9.56
2023-02-19T06:37:41.511Z,9.76
2023-02-19T06:40:08.826Z,9.95
2023-02-19T06:42:35.757Z,10.07
2023-02-19T06:45:02.600Z,10.36
2023-02-19T06:47:32.976Z,10.61
2023-02-19T06:50:00.848Z,10.90
2023-02-19T06:52:28.485Z,10.94
2023-02-19T06:54:55.253Z,11.08
2023-02-19T06:57:22.060Z,11.30
2023-02-19T06:59:48.930Z,11.47
2023-02-19T07:02:18.930Z,11.80
2023-02-19T07:04:45.820Z,12.11
2023-02-19T07:07:13.445Z,12.59
2023-02-19T07:09:40.350Z,12.91
2023-02-19T07:12:08.062Z,13.30
2023-02-19T07:14:34.949Z,14.94
2023-02-19T07:17:01.935Z,16.15
2023-02-19T07:19:28.725Z,16.12
2023-02-19T07:21:55.885Z,16.61
2023-02-19T07:24:22.832Z,16.67
2023-02-19T07:26:49.848Z,16.17
2023-02-19T07:29:16.814Z,16.55
2023-02-19T07:31:43.893Z,16.70
2023-02-19T07:34:10.801Z,16.59
2023-02-19T07:36:37.734Z,16.98
2023-02-19T07:39:04.642Z,17.45
2023-02-19T07:41:32.159Z,17.25
2023-02-19T07:44:18.057Z,16.87
2023-02-19T07:46:45.008Z,16.58
2023-02-19T07:49:11.924Z,16.16
2023-02-19T07:51:57.336Z,16.30
2023-02-19T07:54:24.119Z,16.20
2023-02-19T07:56:51.089Z,16.10
2023-02-19T07:59:19.617Z,16.09
2023-02-19T08:02:05.051Z,16.18
2023-02-19T08:04:31.972Z,16.67
2023-02-19T08:06:58.755Z,16.96
2023-02-19T08:09:25.642Z,17.50
2023-02-19T08:12:11.322Z,18.04
2023-02-19T08:14:58.077Z,18.46
2023-02-19T08:17:25.057Z,18.59
2023-02-19T08:19:52.085Z,19.02
2023-02-19T08:22:19.426Z,19.11
2023-02-19T08:24:46.346Z,19.48
2023-02-19T08:27:13.260Z,19.64
2023-02-19T08:29:40.202Z,20.37
2023-02-19T08:32:07.213Z,20.18
2023-02-19T08:34:34.035Z,20.33
2023-02-19T08:37:02.378Z,20.22
2023-02-19T08:39:29.223Z,20.82
2023-02-19T08:41:55.996Z,20.68
2023-02-19T08:44:22.782Z,20.76
2023-02-19T08:46:49.805Z,21.03
2023-02-19T08:49:16.705Z,21.22
2023-02-19T08:52:02.248Z,21.40
2023-02-19T08:54:30.153Z,21.38
2023-02-19T08:57:15.732Z,21.35
2023-02-19T08:59:42.594Z,21.62
2023-02-19T09:02:10.293Z,21.91
2023-02-19T09:04:37.972Z,21.76
2023-02-19T09:07:08.040Z,21.53
2023-02-19T09:09:37.657Z,21.75
2023-02-19T09:12:08.982Z,22.09
2023-02-19T09:14:36.277Z,22.20
2023-02-19T09:17:05.511Z,22.14
2023-02-19T09:19:33.037Z,22.37
2023-02-19T09:22:00.344Z,22.63
2023-02-19T09:24:27.410Z,21.92
2023-02-19T09:26:55.457Z,22.07
2023-02-19T09:29:25.589Z,22.42
2023-02-19T09:31:57.124Z,22.45
2023-02-19T09:34:25.508Z,22.57
2023-02-19T09:36:52.666Z,22.48
2023-02-19T09:39:20.420Z,22.39
2023-02-19T09:41:55.472Z,22.18
2023-02-19T09:44:29.783Z,21.95
2023-02-19T09:46:57.242Z,22.20
2023-02-19T09:49:32.179Z,21.76
2023-02-19T09:52:07.977Z,21.70
2023-02-19T09:54:37.519Z,21.90
2023-02-19T09:57:04.983Z,22.12
2023-02-19T09:59:41.155Z,22.13
2023-02-19T10:02:17.504Z,22.36
2023-02-19T10:04:46.050Z,22.53
2023-02-19T10:07:18.546Z,22.74
2023-02-19T10:10:02.142Z,22.87
2023-02-19T10:12:32.069Z,22.14
2023-02-19T10:15:11.776Z,21.56
2023-02-19T10:17:38.817Z,21.66
2023-02-19T10:20:06.315Z,22.13
2023-02-19T10:22:37.019Z,22.31
2023-02-19T10:25:22.464Z,22.63
2023-02-19T10:27:49.614Z,22.81
2023-02-19T10:30:29.747Z,22.67
2023-02-19T10:33:02.709Z,22.56
2023-02-19T10:35:31.373Z,22.55
2023-02-19T10:37:58.368Z,22.25
2023-02-19T10:40:27.799Z,22.17
2023-02-19T10:42:59.528Z,22.06
2023-02-19T10:45:50.684Z,21.89
2023-02-19T10:48:28.437Z,22.36
2023-02-19T10:50:58.447Z,22.36
2023-02-19T10:53:41.900Z,21.50
2023-02-19T10:56:13.035Z,21.96
2023-02-19T10:58:42.486Z,22.37
2023-02-19T11:01:16.571Z,22.23
2023-02-19T11:03:43.561Z,22.10
2023-02-19T11:06:14.024Z,21.37
2023-02-19T11:08:52.096Z,20.97
2023-02-19T11:11:23.292Z,21.08
2023-02-19T11:13:50.782Z,21.14
2023-02-19T11:16:18.144Z,21.13
2023-02-19T11:18:54.826Z,21.33
2023-02-19T11:21:33.184Z,21.36
2023-02-19T11:24:02.400Z,21.49
2023-02-19T11:26:35.511Z,21.52
2023-02-19T11:29:17.522Z,20.16
2023-02-19T11:31:44.549Z,20.28
2023-02-19T11:34:13.968Z,20.75
2023-02-19T11:36:41.831Z,20.73
2023-02-19T11:39:17.832Z,20.48
2023-02-19T11:42:14.260Z,20.75
2023-02-19T11:45:05.409Z,21.03
2023-02-19T11:47:44.245Z,21.01
2023-02-19T11:50:11.163Z,20.63
2023-02-19T11:53:12.084Z,21.01
2023-02-19T11:55:57.037Z,21.01
2023-02-19T11:58:48.769Z,20.76
2023-02-19T12:01:40.006Z,21.14
2023-02-19T12:04:37.944Z,20.68
2023-02-19T12:07:49.275Z,20.42
2023-02-19T12:10:48.156Z,20.90
2023-02-19T12:13:45.312Z,21.03
2023-02-19T12:16:26.302Z,20.93
2023-02-19T12:19:02.492Z,20.84
2023-02-19T12:22:13.861Z,20.73
2023-02-19T12:25:25.845Z,20.96
2023-02-19T12:28:39.737Z,20.98
2023-02-19T12:31:32.997Z,21.12
2023-02-19T12:34:21.753Z,20.79
2023-02-19T12:36:54.246Z,20.88
2023-02-19T12:39:39.844Z,20.89
2023-02-19T12:42:44.185Z,20.94
2023-02-19T12:45:37.423Z,20.72
2023-02-19T12:48:43.352Z,20.87
2023-02-19T12:51:21.902Z,20.44
2023-02-19T12:54:03.745Z,20.13
2023-02-19T12:56:45.549Z,20.37
2023-02-19T12:59:22.998Z,20.05
2023-02-19T13:01:57.306Z,20.10
2023-02-19T13:05:22.845Z,19.93
2023-02-19T13:08:07.875Z,19.94
2023-02-19T13:10:40.810Z,20.01
2023-02-19T13:13:22.787Z,19.65
2023-02-19T13:15:59.219Z,19.77
2023-02-19T13:18:49.127Z,19.69
2023-02-19T13:21:38.401Z,19.47
2023-02-19T13:24:15.686Z,19.34
2023-02-19T13:26:49.405Z,19.27
2023-02-19T13:29:31.155Z,19.07
2023-02-19T13:32:19.468Z,19.21
2023-02-19T13:35:23.088Z,19.28
2023-02-19T13:37:50.769Z,19.17
2023-02-19T13:40:39.480Z,18.94
2023-02-19T13:43:28.266Z,19.01
2023-02-19T13:46:02.720Z,19.05
2023-02-19T13:48:35.536Z,18.60
2023-02-19T13:51:18.842Z,18.51
2023-02-19T13:53:45.793Z,18.44
2023-02-19T13:56:31.544Z,18.45
2023-02-19T13:58:58.350Z,18.29
2023-02-19T14:01:49.668Z,17.97
2023-02-19T14:04:48.563Z,17.80
2023-02-19T14:07:15.284Z,17.69
2023-02-19T14:09:44.033Z,17.58
2023-02-19T14:12:10.906Z,17.55
2023-02-19T14:14:41.432Z,17.58
2023-02-19T14:17:17.906Z,17.56
2023-02-19T14:19:51.467Z,17.29
2023-02-19T14:22:50.359Z,17.26
2023-02-19T14:25:32.255Z,17.18
2023-02-19T14:28:28.006Z,16.97
2023-02-19T14:31:01.126Z,16.86
2023-02-19T14:33:35.665Z,16.77
2023-02-19T14:36:18.242Z,16.67
2023-02-19T14:39:22.628Z,16.71
2023-02-19T14:41:58.658Z,16.64
2023-02-19T14:44:29.108Z,16.44
2023-02-19T14:47:20.855Z,16.48
2023-02-19T14:50:00.106Z,16.36
2023-02-19T14:52:34.547Z,16.43
2023-02-19T14:55:10.077Z,16.30
2023-02-19T14:57:41.095Z,16.31
2023-02-19T15:00:27.739Z,16.23
2023-02-19T15:02:57.761Z,16.26
2023-02-19T15:05:30.863Z,16.17
2023-02-19T15:08:09.570Z,16.13
2023-02-19T15:10:36.976Z,16.10
2023-02-19T15:13:08.725Z,16.07
2023-02-19T15:15:43.602Z,16.01
2023-02-19T15:18:20.056Z,15.90
2023-02-19T15:20:47.569Z,15.94
2023-02-19T15:23:22.616Z,16.13
2023-02-19T15:25:50.774Z,16.28
2023-02-19T15:28:26.634Z,16.18
2023-02-19T15:30:59.486Z,16.01
2023-02-19T15:33:28.335Z,15.89
2023-02-19T15:35:58.342Z,15.89
2023-02-19T15:38:26.424Z,15.79
2023-02-19T15:41:25.705Z,15.75
2023-02-19T15:44:13.593Z,15.80
2023-02-19T15:46:41.624Z,16.07
2023-02-19T15:49:17.374Z,16.30
2023-02-19T15:52:03.014Z,16.13
2023-02-19T15:55:03.202Z,15.85
2023-02-19T15:57:35.752Z,15.67
2023-02-19T16:00:32.701Z,15.54
2023-02-19T16:02:59.923Z,15.39
2023-02-19T16:05:29.064Z,15.31
2023-02-19T16:08:14.284Z,15.24
2023-02-19T16:10:52.177Z,15.15
2023-02-19T16:13:24.693Z,15.03
2023-02-19T16:16:07.505Z,15.04
2023-02-19T16:18:35.275Z,14.94
2023-02-19T16:21:23.459Z,14.87
2023-02-19T16:23:57.136Z,14.88
2023-02-19T16:26:24.076Z,14.83
2023-02-19T16:28:53.744Z,14.81
2023-02-19T16:31:23.523Z,14.72
2023-02-19T16:33:51.117Z,14.65
2023-02-19T16:36:32.775Z,14.61
2023-02-19T16:39:08.683Z,14.49
2023-02-19T16:41:41.620Z,14.46
2023-02-19T16:44:32.593Z,14.33
2023-02-19T16:47:04.966Z,14.27
2023-02-19T16:49:32.107Z,14.28
2023-02-19T16:52:04.499Z,14.25
2023-02-19T16:54:31.810Z,14.20
2023-02-19T16:56:58.774Z,14.14
2023-02-19T16:59:25.588Z,14.19
2023-02-19T17:01:52.652Z,14.12
2023-02-19T17:04:19.644Z,14.15
2023-02-19T17:06:47.489Z,14.05
2023-02-19T17:09:14.357Z,14.03
2023-02-19T17:11:41.207Z,14.01
2023-02-19T17:14:08.419Z,14.06
2023-02-19T17:16:40.566Z,13.98
2023-02-19T17:19:16.999Z,13.92
2023-02-19T17:21:45.443Z,13.84
2023-02-19T17:24:12.816Z,13.82
2023-02-19T17:26:39.621Z,13.76
2023-02-19T17:29:08.744Z,13.73
2023-02-19T17:31:35.662Z,13.69
2023-02-19T17:34:02.522Z,13.73
2023-02-19T17:36:32.153Z,13.65
2023-02-19T17:39:00.333Z,13.61
2023-02-19T17:41:27.555Z,13.53
2023-02-19T17:43:54.609Z,13.43
2023-02-19T17:46:25.117Z,13.41
2023-02-19T17:48:52.688Z,13.36
2023-02-19T17:51:20.259Z,13.24
2023-02-19T17:53:47.060Z,13.20
2023-02-19T17:56:25.766Z,13.14
2023-02-19T17:58:53.309Z,13.10
2023-02-19T18:01:20.439Z,13.14
2023-02-19T18:03:47.467Z,13.02
2023-02-19T18:06:14.668Z,12.98
2023-02-19T18:08:48.095Z,13.00
2023-02-19T18:11:15.067Z,12.94
2023-02-19T18:13:41.826Z,12.94
2023-02-19T18:16:09.984Z,12.79
2023-02-19T18:18:37.621Z,12.88
2023-02-19T18:21:07.918Z,13.00
2023-02-19T18:23:34.784Z,13.03
2023-02-19T18:26:01.769Z,12.97
2023-02-19T18:28:28.661Z,12.96
2023-02-19T18:30:55.666Z,12.98
2023-02-19T18:33:22.615Z,13.01
2023-02-19T18:35:50.537Z,12.98
2023-02-19T18:38:17.446Z,12.84
2023-02-19T18:40:44.435Z,12.81
2023-02-19T18:43:11.439Z,12.84
2023-02-19T18:45:39.836Z,12.82
2023-02-19T18:48:06.700Z,12.76
2023-02-19T18:50:35.123Z,12.69
2023-02-19T18:53:02.350Z,12.69
2023-02-19T18:55:29.290Z,12.73
2023-02-19T18:57:56.117Z,12.64
2023-02-19T19:00:26.649Z,12.67
2023-02-19T19:02:58.437Z,12.64
2023-02-19T19:05:26.234Z,12.62
2023-02-19T19:07:54.580Z,12.63
2023-02-19T19:10:22.475Z,12.61
2023-02-19T19:12:49.809Z,12.63
2023-02-19T19:15:18.597Z,12.68
2023-02-19T19:17:46.029Z,12.79
2023-02-19T19:20:14.031Z,12.82
2023-02-19T19:22:40.982Z,12.82
2023-02-19T19:25:08.880Z,12.75
2023-02-19T19:27:35.764Z,12.86
2023-02-19T19:30:04.962Z,12.78
2023-02-19T19:32:31.926Z,12.89
2023-02-19T19:34:58.780Z,12.86
2023-02-19T19:37:28.345Z,12.85
2023-02-19T19:39:56.584Z,12.92
2023-02-19T19:42:24.050Z,12.87
2023-02-19T19:44:50.908Z,12.88
2023-02-19T19:47:17.849Z,12.91
2023-02-19T19:49:47.455Z,12.94
2023-02-19T19:52:14.984Z,12.97
2023-02-19T19:54:45.018Z,12.91
2023-02-19T19:57:12.046Z,12.88
2023-02-19T19:59:39.699Z,12.87
2023-02-19T20:02:07.950Z,12.90
2023-02-19T20:04:35.003Z,12.85
2023-02-19T20:07:02.531Z,12.84
2023-02-19T20:09:29.624Z,12.84
2023-02-19T20:11:57.176Z,12.78
2023-02-19T20:14:25.448Z,12.82
2023-02-19T20:16:53.660Z,12.81
2023-02-19T20:19:21.005Z,12.85
2023-02-19T20:21:53.388Z,12.80
2023-02-19T20:24:28.701Z,12.75
2023-02-19T20:27:00.643Z,12.68
2023-02-19T20:29:29.179Z,12.73
2023-02-19T20:32:00.037Z,12.75
2023-02-19T20:34:46.362Z,12.64
2023-02-19T20:37:13.537Z,12.73
2023-02-19T20:39:40.485Z,12.75
2023-02-19T20:42:07.647Z,12.84
2023-02-19T20:44:34.638Z,12.85
2023-02-19T20:47:01.778Z,12.75
2023-02-19T20:49:30.940Z,12.80
2023-02-19T20:52:01.031Z,12.84
2023-02-19T20:54:30.199Z,12.75
2023-02-19T20:57:00.288Z,12.76
2023-02-19T20:59:30.948Z,12.79
2023-02-19T21:01:59.083Z,12.84
2023-02-19T21:04:26.445Z,12.88
2023-02-19T21:06:53.305Z,12.95
2023-02-19T21:09:20.734Z,12.85
2023-02-19T21:11:48.369Z,12.88
2023-02-19T21:14:15.796Z,12.88
2023-02-19T21:16:42.689Z,12.91
2023-02-19T21:19:09.561Z,12.89
2023-02-19T21:21:36.663Z,12.90
2023-02-19T21:24:03.692Z,12.95
2023-02-19T21:26:56.363Z,12.96
2023-02-19T21:29:23.248Z,12.95
2023-02-19T21:31:52.646Z,12.90
2023-02-19T21:34:22.789Z,12.89
2023-02-19T21:36:49.627Z,12.88
2023-02-19T21:39:18.742Z,12.84
2023-02-19T21:41:46.116Z,12.78
2023-02-19T21:44:13.364Z,12.70
2023-02-19T21:46:40.306Z,12.75
2023-02-19T21:49:07.425Z,12.72
2023-02-19T21:51:40.588Z,12.69
2023-02-19T21:54:09.056Z,12.57
2023-02-19T21:56:37.261Z,12.51
2023-02-19T21:59:04.668Z,12.55
2023-02-19T22:01:35.361Z,12.55
2023-02-19T22:04:02.252Z,12.62
2023-02-19T22:06:30.796Z,12.57
2023-02-19T22:08:59.011Z,12.59
2023-02-19T22:11:44.333Z,12.57
2023-02-19T22:14:11.267Z,12.56
2023-02-19T22:16:38.209Z,12.61
2023-02-19T22:19:05.051Z,12.63
2023-02-19T22:21:35.603Z,12.65
2023-02-19T22:24:03.438Z,12.68
2023-02-19T22:26:35.674Z,12.72
2023-02-19T22:29:07.316Z,12.69
2023-02-19T22:31:35.254Z,12.65
2023-02-19T22:34:02.465Z,12.73
2023-02-19T22:36:31.238Z,12.75
2023-02-19T22:38:58.322Z,12.76
2023-02-19T22:41:26.160Z,12.70
2023-02-19T22:43:57.469Z,12.71
2023-02-19T22:46:26.404Z,12.67
2023-02-19T22:48:53.209Z,12.61
2023-02-19T22:51:22.595Z,12.49
2023-02-19T22:53:52.471Z,12.53
2023-02-19T22:56:20.778Z,12.46
2023-02-19T22:58:47.786Z,12.02
2023-02-19T23:01:15.046Z,11.95
2023-02-19T23:03:49.081Z,12.03
2023-02-19T23:06:17.743Z,11.97
2023-02-19T23:08:44.759Z,11.96
2023-02-19T23:11:13.319Z,11.82
2023-02-19T23:13:42.931Z,11.80
2023-02-19T23:16:09.953Z,11.67
2023-02-19T23:18:36.966Z,11.69
2023-02-19T23:21:03.876Z,11.70
2023-02-19T23:23:30.727Z,11.71
2023-02-19T23:25:57.555Z,11.60
2023-02-19T23:28:25.466Z,11.65
2023-02-19T23:30:52.386Z,11.66
2023-02-19T23:33:19.345Z,11.57
2023-02-19T23:35:46.166Z,11.55
2023-02-19T23:38:13.007Z,11.66
2023-02-19T23:40:40.217Z,11.56
2023-02-19T23:43:09.771Z,11.49
2023-02-19T23:45:36.583Z,11.54
2023-02-19T23:48:03.600Z,11.46
2023-02-19T23:50:30.429Z,11.51
2023-02-19T23:52:59.273Z,11.45
2023-02-19T23:55:26.731Z,11.48
2023-02-19T23:57:53.870Z,11.34
